createdAt,value
2022-08-04T00:01:12.842Z,20.29
2022-08-04T00:03:52.153Z,20.29
2022-08-04T00:06:39.181Z,20.29
2022-08-04T00:09:17.314Z,20.28
2022-08-04T00:11:49.100Z,20.27
2022-08-04T00:14:22.130Z,20.23
2022-08-04T00:16:50.872Z,20.20
2022-08-04T00:19:23.174Z,20.18
2022-08-04T00:21:59.941Z,20.15
2022-08-04T00:24:29.744Z,20.14
2022-08-04T00:26:56.591Z,20.11
2022-08-04T00:29:26.486Z,20.06
2022-08-04T00:31:57.405Z,19.99
2022-08-04T00:34:26.868Z,19.93
2022-08-04T00:36:55.391Z,19.85
2022-08-04T00:39:23.090Z,19.80
2022-08-04T00:42:08.538Z,19.72
2022-08-04T00:44:50.223Z,19.67
2022-08-04T00:47:49.541Z,19.56
2022-08-04T00:50:28.517Z,19.53
2022-08-04T00:53:06.000Z,19.48
2022-08-04T00:56:06.257Z,19.42
2022-08-04T00:58:42.963Z,19.38
2022-08-04T01:01:33.469Z,19.33
2022-08-04T01:04:25.577Z,19.28
2022-08-04T01:07:27.599Z,19.26
2022-08-04T01:10:42.409Z,19.21
2022-08-04T01:13:33.585Z,19.17
2022-08-04T01:16:06.209Z,19.14
2022-08-04T01:19:00.095Z,19.13
2022-08-04T01:21:29.476Z,19.09
2022-08-04T01:24:17.099Z,19.04
2022-08-04T01:27:00.224Z,19.00
2022-08-04T01:29:29.378Z,18.95
2022-08-04T01:32:18.076Z,18.89
2022-08-04T01:34:56.042Z,18.87
2022-08-04T01:37:38.782Z,18.85
2022-08-04T01:40:07.674Z,18.81
2022-08-04T01:42:36.023Z,18.76
2022-08-04T01:45:08.476Z,18.76
2022-08-04T01:47:37.488Z,18.75
2022-08-04T01:50:14.178Z,18.72
2022-08-04T01:52:46.492Z,18.70
2022-08-04T01:55:18.161Z,18.69
2022-08-04T01:57:50.511Z,18.66
2022-08-04T02:00:27.333Z,18.62
2022-08-04T02:02:55.682Z,18.60
2022-08-04T02:05:24.853Z,18.57
2022-08-04T02:08:10.439Z,18.54
2022-08-04T02:10:42.938Z,18.50
2022-08-04T02:13:32.068Z,18.46
2022-08-04T02:16:21.801Z,18.42
2022-08-04T02:19:00.481Z,18.38
2022-08-04T02:21:27.856Z,18.35
2022-08-04T02:24:14.586Z,18.29
2022-08-04T02:26:43.920Z,18.28
2022-08-04T02:29:29.251Z,18.25
2022-08-04T02:32:05.369Z,18.23
2022-08-04T02:34:54.077Z,18.23
2022-08-04T02:37:22.826Z,18.18
2022-08-04T02:39:53.980Z,18.17
2022-08-04T02:42:20.528Z,18.13
2022-08-04T02:44:50.461Z,18.10
2022-08-04T02:47:22.242Z,18.07
2022-08-04T02:49:51.535Z,18.07
2022-08-04T02:52:20.626Z,18.05
2022-08-04T02:54:52.015Z,18.03
2022-08-04T02:57:19.201Z,18.00
2022-08-04T03:00:04.042Z,17.98
2022-08-04T03:02:39.789Z,17.95
2022-08-04T03:05:50.205Z,17.91
2022-08-04T03:08:43.621Z,17.85
2022-08-04T03:11:27.933Z,17.81
2022-08-04T03:14:19.491Z,17.75
2022-08-04T03:16:58.409Z,17.70
2022-08-04T03:19:34.316Z,17.63
2022-08-04T03:22:13.810Z,17.62
2022-08-04T03:24:49.529Z,17.62
2022-08-04T03:27:16.082Z,17.57
2022-08-04T03:30:11.711Z,17.56
2022-08-04T03:33:06.923Z,17.49
2022-08-04T03:35:48.814Z,17.42
2022-08-04T03:38:21.377Z,17.43
2022-08-04T03:41:51.293Z,17.43
2022-08-04T03:44:30.190Z,17.37
2022-08-04T03:47:15.541Z,17.37
2022-08-04T03:50:06.978Z,17.34
2022-08-04T03:53:10.618Z,17.31
2022-08-04T03:56:13.663Z,17.26
2022-08-04T03:58:46.132Z,17.24
2022-08-04T04:01:12.649Z,17.23
2022-08-04T04:03:59.218Z,17.22
2022-08-04T04:06:54.029Z,17.22
2022-08-04T04:09:58.116Z,17.20
2022-08-04T04:12:36.477Z,17.20
2022-08-04T04:15:15.093Z,17.19
2022-08-04T04:18:06.518Z,17.19
2022-08-04T04:20:50.816Z,17.17
2022-08-04T04:23:38.759Z,17.17
2022-08-04T04:26:26.688Z,17.19
2022-08-04T04:28:53.199Z,17.17
2022-08-04T04:31:22.812Z,17.19
2022-08-04T04:33:58.876Z,17.18
2022-08-04T04:36:35.489Z,17.18
2022-08-04T04:39:28.326Z,17.20
2022-08-04T04:42:32.044Z,17.19
2022-08-04T04:45:29.526Z,17.17
2022-08-04T04:48:12.744Z,17.20
2022-08-04T04:50:57.950Z,17.22
2022-08-04T04:53:34.346Z,17.24
2022-08-04T04:56:12.513Z,17.26
2022-08-04T04:58:42.989Z,17.27
2022-08-04T05:01:24.847Z,17.31
2022-08-04T05:04:29.183Z,17.33
2022-08-04T05:07:29.026Z,17.37
2022-08-04T05:10:17.110Z,17.42
2022-08-04T05:14:35.068Z,17.45
2022-08-04T05:16:01.345Z,17.47
2022-08-04T05:18:33.077Z,17.56
2022-08-04T05:21:13.267Z,17.65
2022-08-04T05:23:47.394Z,17.67
2022-08-04T05:26:20.152Z,17.73
2022-08-04T05:28:55.628Z,17.81
2022-08-04T05:31:27.328Z,17.88
2022-08-04T05:34:35.642Z,18.03
2022-08-04T05:37:09.208Z,18.17
2022-08-04T05:39:47.180Z,18.27
2022-08-04T05:42:15.412Z,18.40
2022-08-04T05:44:47.636Z,18.62
2022-08-04T05:47:17.476Z,18.83
2022-08-04T05:49:44.992Z,19.01
2022-08-04T05:52:24.603Z,19.21
2022-08-04T05:54:52.552Z,19.40
2022-08-04T05:57:20.591Z,19.59
2022-08-04T05:59:50.819Z,19.80
2022-08-04T06:02:20.498Z,19.99
2022-08-04T06:04:50.190Z,20.21
2022-08-04T06:07:20.538Z,20.41
2022-08-04T06:09:47.556Z,20.64
2022-08-04T06:12:46.531Z,20.89
2022-08-04T06:15:18.189Z,21.14
2022-08-04T06:18:58.543Z,21.36
2022-08-04T06:20:40.789Z,21.59
2022-08-04T06:23:20.969Z,21.86
2022-08-04T06:25:51.604Z,22.14
2022-08-04T06:28:19.941Z,22.33
2022-08-04T06:30:49.982Z,22.54
2022-08-04T06:33:54.511Z,22.73
2022-08-04T06:36:21.365Z,22.65
2022-08-04T06:38:58.271Z,22.99
2022-08-04T06:41:26.375Z,23.25
2022-08-04T06:43:54.062Z,23.29
2022-08-04T06:46:21.282Z,23.49
2022-08-04T06:48:49.896Z,23.81
2022-08-04T06:51:32.309Z,24.17
2022-08-04T06:54:02.394Z,24.36
2022-08-04T06:56:31.041Z,24.36
2022-08-04T06:59:00.100Z,24.43
2022-08-04T07:01:29.286Z,24.49
2022-08-04T07:03:56.091Z,24.58
2022-08-04T07:06:23.605Z,24.51
2022-08-04T07:08:50.944Z,24.38
2022-08-04T07:11:19.382Z,24.47
2022-08-04T07:13:46.596Z,24.82
2022-08-04T07:16:18.254Z,25.38
2022-08-04T07:18:50.173Z,25.23
2022-08-04T07:21:23.770Z,25.23
2022-08-04T07:23:53.965Z,25.53
2022-08-04T07:26:26.536Z,25.91
2022-08-04T07:28:55.747Z,26.55
2022-08-04T07:31:34.031Z,27.06
2022-08-04T07:34:21.120Z,27.67
2022-08-04T07:36:55.435Z,28.20
2022-08-04T07:39:29.625Z,28.50
2022-08-04T07:41:59.079Z,29.01
2022-08-04T07:44:26.388Z,29.33
2022-08-04T07:46:53.938Z,29.30
2022-08-04T07:49:55.741Z,29.11
2022-08-04T07:52:08.610Z,29.23
2022-08-04T07:54:39.913Z,29.53
2022-08-04T07:57:06.543Z,29.66
2022-08-04T07:59:33.703Z,29.72
2022-08-04T08:02:02.096Z,29.52
2022-08-04T08:04:29.702Z,29.33
2022-08-04T08:07:00.468Z,29.67
2022-08-04T08:09:27.171Z,30.02
2022-08-04T08:12:38.166Z,30.33
2022-08-04T08:14:45.501Z,30.94
2022-08-04T08:17:12.205Z,30.94
2022-08-04T08:19:38.838Z,30.85
2022-08-04T08:22:05.877Z,31.59
2022-08-04T08:24:36.854Z,32.48
2022-08-04T08:27:04.874Z,32.79
2022-08-04T08:29:34.048Z,32.95
2022-08-04T08:32:07.791Z,32.94
2022-08-04T08:34:35.338Z,33.57
2022-08-04T08:37:30.300Z,32.93
2022-08-04T08:40:16.417Z,32.75
2022-08-04T08:44:04.876Z,33.24
2022-08-04T08:46:33.112Z,33.66
2022-08-04T08:49:13.980Z,34.28
2022-08-04T08:53:01.061Z,34.49
2022-08-04T08:55:54.258Z,34.63
2022-08-04T08:58:46.028Z,34.80
2022-08-04T09:01:29.762Z,35.08
2022-08-04T09:04:28.855Z,35.24
2022-08-04T09:07:13.850Z,35.60
2022-08-04T09:09:51.973Z,35.45
2022-08-04T09:12:41.520Z,35.88
2022-08-04T09:15:15.713Z,36.30
2022-08-04T09:17:54.282Z,36.14
2022-08-04T09:20:31.958Z,36.16
2022-08-04T09:23:13.980Z,37.18
2022-08-04T09:25:59.358Z,37.54
2022-08-04T09:28:52.926Z,37.24
2022-08-04T09:31:24.741Z,37.48
2022-08-04T09:34:05.801Z,37.26
2022-08-04T09:36:37.916Z,37.68
2022-08-04T09:39:29.625Z,37.54
2022-08-04T09:42:04.340Z,38.19
2022-08-04T09:45:05.876Z,37.65
2022-08-04T09:48:06.940Z,37.37
2022-08-04T09:50:40.867Z,37.26
2022-08-04T09:53:29.444Z,37.38
2022-08-04T09:56:04.784Z,38.03
2022-08-04T09:58:51.291Z,38.42
2022-08-04T10:01:25.476Z,38.69
2022-08-04T10:04:07.432Z,38.52
2022-08-04T10:07:00.682Z,37.99
2022-08-04T10:09:54.269Z,38.69
2022-08-04T10:12:38.828Z,38.55
2022-08-04T10:15:20.862Z,38.97
2022-08-04T10:17:54.275Z,38.58
2022-08-04T10:20:45.849Z,38.60
2022-08-04T10:24:11.513Z,38.73
2022-08-04T10:27:00.190Z,38.88
2022-08-04T10:29:37.406Z,39.14
2022-08-04T10:32:22.032Z,39.81
2022-08-04T10:35:13.011Z,39.92
2022-08-04T10:38:02.488Z,40.44
2022-08-04T10:40:45.216Z,40.45
2022-08-04T10:43:22.626Z,40.45
2022-08-04T10:46:01.165Z,40.64
2022-08-04T10:48:34.937Z,41.09
2022-08-04T10:51:29.779Z,40.95
2022-08-04T10:54:00.206Z,40.97
2022-08-04T10:56:41.994Z,41.22
2022-08-04T10:59:48.757Z,40.98
2022-08-04T11:02:34.285Z,41.03
2022-08-04T11:05:04.740Z,40.58
2022-08-04T11:07:35.048Z,40.57
2022-08-04T11:10:02.658Z,40.88
2022-08-04T11:12:31.193Z,40.32
2022-08-04T11:15:13.505Z,40.21
2022-08-04T11:17:47.219Z,40.94
2022-08-04T11:20:38.375Z,41.88
2022-08-04T11:23:14.472Z,40.89
2022-08-04T11:26:04.961Z,39.52
2022-08-04T11:28:46.050Z,39.56
2022-08-04T11:31:17.881Z,40.07
2022-08-04T11:33:52.550Z,40.61
2022-08-04T11:36:25.034Z,40.94
2022-08-04T11:39:28.314Z,40.59
2022-08-04T11:42:21.047Z,40.80
2022-08-04T11:44:51.428Z,40.66
2022-08-04T11:47:30.404Z,40.92
2022-08-04T11:50:09.823Z,40.62
2022-08-04T11:52:41.809Z,40.86
2022-08-04T11:55:11.592Z,41.54
2022-08-04T11:57:38.397Z,41.12
2022-08-04T12:00:12.711Z,41.23
2022-08-04T12:03:22.458Z,42.14
2022-08-04T12:06:10.787Z,42.49
2022-08-04T12:09:04.696Z,42.35
2022-08-04T12:11:53.860Z,42.38
2022-08-04T12:14:49.582Z,42.86
2022-08-04T12:17:27.595Z,42.45
2022-08-04T12:20:38.438Z,42.32
2022-08-04T12:22:56.184Z,43.38
2022-08-04T12:25:34.726Z,43.52
2022-08-04T12:28:21.808Z,42.89
2022-08-04T12:31:01.125Z,41.97
2022-08-04T12:34:04.190Z,42.10
2022-08-04T12:36:45.276Z,41.45
2022-08-04T12:39:18.073Z,41.24
2022-08-04T12:42:29.088Z,40.93
2022-08-04T12:44:58.417Z,40.66
2022-08-04T12:47:29.266Z,40.34
2022-08-04T12:50:02.255Z,39.86
2022-08-04T12:53:00.520Z,39.79
2022-08-04T12:55:22.505Z,39.50
2022-08-04T12:57:50.829Z,39.34
2022-08-04T13:00:33.182Z,39.22
2022-08-04T13:03:10.920Z,38.89
2022-08-04T13:05:42.915Z,39.06
2022-08-04T13:08:11.934Z,38.99
2022-08-04T13:10:43.565Z,38.39
2022-08-04T13:13:21.843Z,38.18
2022-08-04T13:16:08.369Z,38.30
2022-08-04T13:18:46.223Z,38.15
2022-08-04T13:21:20.778Z,38.12
2022-08-04T13:24:20.507Z,38.00
2022-08-04T13:26:54.311Z,38.10
2022-08-04T13:30:00.536Z,37.82
2022-08-04T13:32:16.652Z,37.79
2022-08-04T13:34:48.830Z,38.11
2022-08-04T13:37:21.059Z,39.36
2022-08-04T13:39:55.337Z,39.54
2022-08-04T13:42:25.915Z,39.66
2022-08-04T13:44:59.867Z,39.64
2022-08-04T13:47:34.210Z,39.19
2022-08-04T13:50:23.478Z,38.59
2022-08-04T13:52:53.516Z,38.44
2022-08-04T13:55:42.277Z,38.12
2022-08-04T13:58:21.892Z,38.09
2022-08-04T14:01:11.025Z,38.06
2022-08-04T14:03:54.018Z,38.03
2022-08-04T14:06:25.788Z,37.90
2022-08-04T14:09:10.026Z,37.54
2022-08-04T14:12:09.112Z,37.64
2022-08-04T14:14:32.404Z,38.26
2022-08-04T14:17:06.785Z,38.70
2022-08-04T14:19:56.188Z,38.99
2022-08-04T14:22:25.746Z,39.01
2022-08-04T14:25:15.330Z,39.19
2022-08-04T14:27:56.304Z,39.72
2022-08-04T14:30:36.230Z,40.24
2022-08-04T14:34:02.040Z,40.24
2022-08-04T14:36:04.680Z,40.91
2022-08-04T14:39:00.285Z,40.95
2022-08-04T14:41:29.608Z,40.20
2022-08-04T14:44:03.231Z,39.80
2022-08-04T14:46:36.977Z,39.31
2022-08-04T14:49:03.753Z,39.10
2022-08-04T14:51:44.910Z,38.69
2022-08-04T14:54:18.444Z,38.52
2022-08-04T14:56:54.208Z,38.33
2022-08-04T14:59:22.797Z,38.21
2022-08-04T15:02:01.224Z,37.98
2022-08-04T15:04:31.439Z,38.04
2022-08-04T15:07:04.490Z,37.96
2022-08-04T15:09:32.748Z,38.30
2022-08-04T15:11:59.892Z,38.69
2022-08-04T15:14:37.333Z,38.91
2022-08-04T15:17:12.030Z,39.16
2022-08-04T15:19:55.589Z,39.14
2022-08-04T15:22:22.847Z,39.14
2022-08-04T15:24:55.097Z,39.32
2022-08-04T15:27:27.370Z,39.20
2022-08-04T15:30:01.615Z,39.20
2022-08-04T15:32:39.177Z,39.10
2022-08-04T15:35:13.359Z,38.87
2022-08-04T15:37:54.624Z,38.35
2022-08-04T15:40:44.755Z,38.29
2022-08-04T15:43:26.652Z,38.58
2022-08-04T15:46:41.753Z,38.75
2022-08-04T15:48:45.065Z,38.77
2022-08-04T15:51:15.048Z,38.79
2022-08-04T15:54:02.452Z,38.52
2022-08-04T15:56:30.019Z,38.34
2022-08-04T15:58:56.944Z,38.33
2022-08-04T16:01:24.174Z,38.25
2022-08-04T16:04:00.001Z,38.37
2022-08-04T16:06:29.854Z,38.39
2022-08-04T16:09:05.299Z,38.08
2022-08-04T16:11:40.087Z,37.90
2022-08-04T16:14:13.454Z,37.42
2022-08-04T16:16:39.970Z,36.97
2022-08-04T16:19:19.957Z,36.90
2022-08-04T16:21:48.782Z,36.81
2022-08-04T16:24:30.246Z,36.66
2022-08-04T16:27:01.586Z,36.79
2022-08-04T16:29:44.395Z,36.75
2022-08-04T16:32:15.451Z,36.70
2022-08-04T16:35:05.402Z,36.90
2022-08-04T16:37:42.570Z,36.99
2022-08-04T16:40:36.476Z,36.81
2022-08-04T16:43:08.418Z,36.95
2022-08-04T16:45:50.082Z,36.62
2022-08-04T16:48:26.945Z,36.32
2022-08-04T16:51:05.352Z,36.32
2022-08-04T16:54:02.598Z,36.43
2022-08-04T16:56:33.358Z,36.28
2022-08-04T16:59:09.554Z,36.06
2022-08-04T17:01:37.659Z,35.82
2022-08-04T17:04:05.443Z,35.69
2022-08-04T17:06:40.955Z,35.60
2022-08-04T17:09:14.822Z,35.63
2022-08-04T17:11:43.391Z,35.44
2022-08-04T17:14:10.364Z,35.36
2022-08-04T17:16:40.327Z,35.28
2022-08-04T17:19:20.085Z,35.31
2022-08-04T17:21:58.877Z,35.30
2022-08-04T17:24:29.385Z,35.14
2022-08-04T17:26:58.113Z,35.03
2022-08-04T17:29:44.548Z,34.96
2022-08-04T17:32:17.060Z,34.86
2022-08-04T17:34:48.806Z,34.64
2022-08-04T17:40:28.863Z,34.22
2022-08-04T17:44:04.185Z,34.06
2022-08-04T17:46:29.141Z,33.75
2022-08-04T17:49:05.612Z,33.61
2022-08-04T17:52:05.606Z,33.51
2022-08-04T17:54:37.080Z,33.37
2022-08-04T17:57:21.231Z,33.29
2022-08-04T17:59:59.177Z,33.19
2022-08-04T18:02:32.851Z,33.12
2022-08-04T18:05:05.955Z,33.04
2022-08-04T18:08:34.748Z,33.01
2022-08-04T18:10:54.261Z,32.94
2022-08-04T18:13:25.792Z,32.81
2022-08-04T18:16:02.486Z,32.65
2022-08-04T18:18:29.790Z,32.56
2022-08-04T18:20:59.659Z,32.45
2022-08-04T18:23:31.854Z,32.37
2022-08-04T18:25:59.598Z,32.25
2022-08-04T18:28:33.047Z,32.16
2022-08-04T18:31:00.722Z,32.03
2022-08-04T18:33:40.367Z,31.92
2022-08-04T18:36:35.282Z,31.81
2022-08-04T18:39:12.750Z,31.72
2022-08-04T18:42:01.082Z,31.54
2022-08-04T18:44:30.807Z,31.41
2022-08-04T18:46:57.973Z,31.30
2022-08-04T18:50:58.801Z,31.15
2022-08-04T18:52:31.761Z,31.03
2022-08-04T18:58:00.923Z,30.78
2022-08-04T19:00:28.513Z,30.60
2022-08-04T19:02:55.165Z,30.49
2022-08-04T19:05:25.276Z,30.35
2022-08-04T19:08:33.886Z,30.22
2022-08-04T19:10:59.431Z,30.14
2022-08-04T19:13:27.767Z,30.00
2022-08-04T19:15:54.600Z,29.80
2022-08-04T19:18:25.923Z,29.76
2022-08-04T19:20:54.733Z,29.70
2022-08-04T19:24:10.773Z,29.66
2022-08-04T19:26:23.678Z,29.57
2022-08-04T19:28:55.227Z,29.50
2022-08-04T19:31:28.407Z,29.46
2022-08-04T19:34:04.734Z,29.41
2022-08-04T19:36:34.200Z,29.33
2022-08-04T19:39:11.352Z,29.23
2022-08-04T19:42:06.056Z,29.17
2022-08-04T19:44:25.793Z,29.10
2022-08-04T19:46:56.706Z,29.03
2022-08-04T19:50:02.870Z,28.95
2022-08-04T19:52:33.913Z,28.89
2022-08-04T19:55:10.880Z,28.81
2022-08-04T19:57:49.287Z,28.75
2022-08-04T20:00:18.132Z,28.67
2022-08-04T20:03:00.351Z,28.61
2022-08-04T20:05:52.630Z,28.54
2022-08-04T20:08:13.877Z,28.49
2022-08-04T20:10:51.544Z,28.44
2022-08-04T20:13:19.977Z,28.34
2022-08-04T20:15:57.344Z,28.25
2022-08-04T20:18:36.672Z,28.22
2022-08-04T20:21:19.608Z,28.13
2022-08-04T20:23:51.495Z,28.04
2022-08-04T20:26:18.277Z,27.99
2022-08-04T20:28:45.774Z,27.93
2022-08-04T20:31:18.480Z,27.88
2022-08-04T20:33:49.100Z,27.81
2022-08-04T20:36:20.350Z,27.74
2022-08-04T20:38:51.971Z,27.64
2022-08-04T20:41:19.587Z,27.54
2022-08-04T20:43:46.681Z,27.51
2022-08-04T20:46:17.685Z,27.44
2022-08-04T20:48:45.432Z,27.36
2022-08-04T20:51:17.865Z,27.30
2022-08-04T20:53:53.166Z,27.22
2022-08-04T20:56:30.617Z,27.16
2022-08-04T20:58:59.624Z,27.08
2022-08-04T21:01:27.029Z,27.01
2022-08-04T21:04:28.449Z,26.94
2022-08-04T21:06:59.477Z,26.84
2022-08-04T21:09:38.399Z,26.76
2022-08-04T21:12:27.949Z,26.67
2022-08-04T21:15:01.473Z,26.60
2022-08-04T21:17:58.590Z,26.48
2022-08-04T21:20:33.569Z,26.42
2022-08-04T21:23:02.106Z,26.37
2022-08-04T21:25:30.290Z,26.31
2022-08-04T21:27:59.077Z,26.22
2022-08-04T21:30:31.226Z,26.09
2022-08-04T21:33:04.168Z,26.04
2022-08-04T21:35:38.254Z,25.98
2022-08-04T21:38:17.306Z,25.95
2022-08-04T21:40:57.114Z,25.91
2022-08-04T21:43:28.679Z,25.83
2022-08-04T21:45:56.409Z,25.82
2022-08-04T21:48:27.604Z,25.82
2022-08-04T21:50:55.174Z,25.79
2022-08-04T21:53:22.995Z,25.77
2022-08-04T21:56:05.657Z,25.74
2022-08-04T21:58:34.494Z,25.73
2022-08-04T22:01:06.106Z,25.76
2022-08-04T22:03:52.336Z,25.77
2022-08-04T22:06:28.243Z,25.76
2022-08-04T22:08:57.062Z,25.70
2022-08-04T22:11:48.389Z,25.62
2022-08-04T22:14:29.671Z,25.58
2022-08-04T22:17:02.453Z,25.56
2022-08-04T22:19:50.298Z,25.59
2022-08-04T22:22:24.720Z,25.55
2022-08-04T22:24:53.278Z,25.51
2022-08-04T22:27:38.472Z,25.51
2022-08-04T22:30:16.762Z,25.51
2022-08-04T22:32:48.270Z,25.47
2022-08-04T22:35:36.190Z,25.42
2022-08-04T22:38:21.322Z,25.39
2022-08-04T22:41:03.925Z,25.38
2022-08-04T22:43:34.442Z,25.20
2022-08-04T22:46:05.179Z,25.02
2022-08-04T22:48:36.830Z,24.91
2022-08-04T22:51:04.941Z,24.76
2022-08-04T22:53:32.207Z,24.64
2022-08-04T22:56:09.782Z,24.58
2022-08-04T22:58:45.612Z,24.47
2022-08-04T23:01:18.593Z,24.25
2022-08-04T23:03:55.041Z,24.18
2022-08-04T23:06:24.954Z,24.02
2022-08-04T23:08:52.101Z,23.93
2022-08-04T23:11:19.028Z,23.74
2022-08-04T23:13:45.979Z,23.70
2022-08-04T23:16:14.187Z,23.51
2022-08-04T23:18:42.128Z,23.26
2022-08-04T23:21:13.915Z,23.33
2022-08-04T23:24:00.755Z,23.44
2022-08-04T23:27:06.882Z,23.36
2022-08-04T23:29:53.036Z,23.24
2022-08-04T23:32:21.053Z,23.09
2022-08-04T23:34:49.285Z,23.06
2022-08-04T23:37:15.883Z,22.93
2022-08-04T23:40:14.439Z,22.91
2022-08-04T23:42:29.170Z,22.98
2022-08-04T23:44:55.799Z,23.06
2022-08-04T23:48:15.515Z,23.10
2022-08-04T23:50:09.446Z,23.15
2022-08-04T23:52:36.045Z,22.81
2022-08-04T23:55:02.748Z,22.43
2022-08-04T23:58:16.753Z,21.99
